createdAt,value
2023-02-26T00:05:23.147Z,0.25
2023-02-26T00:11:46.210Z,0.2
2023-02-26T00:18:06.227Z,0.17
2023-02-26T00:24:29.244Z,0.16
2023-02-26T00:30:49.256Z,0.12
2023-02-26T00:37:12.231Z,0.07
2023-02-26T00:43:32.161Z,-0.04
2023-02-26T00:49:55.289Z,-0.23
2023-02-26T00:56:15.185Z,-0.3
2023-02-26T01:02:38.283Z,-0.36
2023-02-26T01:08:58.247Z,-0.36
2023-02-26T01:15:21.335Z,-0.32
2023-02-26T01:21:41.153Z,-0.3
2023-02-26T01:28:04.182Z,-0.36
2023-02-26T01:34:24.181Z,-0.32
2023-02-26T01:40:47.179Z,-0.34
2023-02-26T01:47:07.166Z,-0.35
2023-02-26T01:53:30.226Z,-0.31
2023-02-26T01:59:50.193Z,-0.3
2023-02-26T02:06:13.222Z,-0.26
2023-02-26T02:12:33.206Z,-0.27
2023-02-26T02:18:56.165Z,-0.25
2023-02-26T02:25:16.196Z,-0.28
2023-02-26T02:31:39.361Z,-0.32
2023-02-26T02:37:59.268Z,-0.35
2023-02-26T02:44:22.237Z,-0.57
2023-02-26T02:50:42.346Z,-0.79
2023-02-26T02:57:05.255Z,-0.87
2023-02-26T03:03:25.183Z,-0.87
2023-02-26T03:09:48.189Z,-0.76
2023-02-26T03:16:08.236Z,-0.66
2023-02-26T03:22:31.260Z,-0.62
2023-02-26T03:28:51.229Z,-0.76
2023-02-26T03:35:14.164Z,-0.89
2023-02-26T03:41:34.239Z,-0.98
2023-02-26T03:47:57.276Z,-1.01
2023-02-26T03:54:17.192Z,-0.96
2023-02-26T04:00:42.780Z,-0.93
2023-02-26T04:24:57.613Z,-0.9
2023-02-26T04:31:17.241Z,-0.91
2023-02-26T04:37:40.270Z,-0.91
2023-02-26T04:44:00.281Z,-0.89
2023-02-26T04:50:23.266Z,-0.86
2023-02-26T04:56:43.205Z,-0.85
2023-02-26T05:03:06.205Z,-0.89
2023-02-26T05:09:26.211Z,-0.95
2023-02-26T05:15:49.263Z,-0.96
2023-02-26T05:22:09.227Z,-0.97
2023-02-26T05:28:32.190Z,-0.99
2023-02-26T05:34:52.389Z,-0.97
2023-02-26T05:41:15.185Z,-0.95
2023-02-26T05:47:35.262Z,-0.92
2023-02-26T05:53:58.267Z,-0.87
2023-02-26T06:00:18.204Z,-0.81
2023-02-26T06:06:41.167Z,-0.82
2023-02-26T06:13:01.252Z,-0.85
2023-02-26T06:19:24.224Z,-0.88
2023-02-26T06:25:44.319Z,-0.91
2023-02-26T06:32:07.424Z,-0.91
2023-02-26T06:38:27.286Z,-0.92
2023-02-26T06:44:51.201Z,-0.98
2023-02-26T06:51:11.317Z,-1.03
2023-02-26T06:57:34.218Z,-1.01
2023-02-26T07:03:54.205Z,-0.97
2023-02-26T07:10:17.193Z,-0.91
2023-02-26T07:16:37.350Z,-0.8
2023-02-26T07:23:00.172Z,-0.64
2023-02-26T07:29:20.227Z,-0.5
2023-02-26T07:35:43.257Z,-0.39
2023-02-26T07:42:03.308Z,-0.3
2023-02-26T07:48:26.362Z,-0.24
2023-02-26T07:54:46.238Z,-0.13
2023-02-26T08:01:09.296Z,-0.06
2023-02-26T08:07:29.184Z,0
2023-02-26T08:13:52.185Z,0.02
2023-02-26T08:20:12.288Z,0.08
2023-02-26T08:26:35.180Z,0.19
2023-02-26T08:32:55.266Z,0.34
2023-02-26T08:39:18.255Z,0.45
2023-02-26T08:45:38.196Z,0.6
2023-02-26T08:52:01.204Z,0.73
2023-02-26T08:58:21.277Z,0.87
2023-02-26T09:04:44.227Z,0.91
2023-02-26T09:20:52.167Z,1.69
2023-02-26T09:27:14.760Z,1.86
2023-02-26T09:33:37.185Z,1.87
2023-02-26T09:39:57.239Z,1.99
2023-02-26T09:46:20.165Z,2.4
2023-02-26T09:52:40.210Z,2.84
2023-02-26T09:59:03.275Z,3.08
2023-02-26T10:05:23.181Z,3.12
2023-02-26T10:11:46.187Z,2.98
2023-02-26T10:18:06.200Z,2.97
2023-02-26T10:24:29.228Z,3.11
2023-02-26T10:30:49.287Z,3.15
2023-02-26T10:37:12.205Z,3.04
2023-02-26T10:43:32.217Z,3.02
2023-02-26T10:49:55.192Z,3.52
2023-02-26T10:56:15.219Z,4.25
2023-02-26T11:02:38.255Z,4.65
2023-02-26T11:08:58.186Z,4.47
2023-02-26T11:15:21.312Z,4.28
2023-02-26T11:21:41.251Z,4.08
2023-02-26T11:28:04.218Z,3.86
2023-02-26T11:34:24.228Z,3.64
2023-02-26T11:40:47.226Z,3.93
2023-02-26T11:47:07.234Z,4.75
2023-02-26T11:53:30.197Z,5.17
2023-02-26T11:59:50.202Z,5.87
2023-02-26T12:06:13.198Z,6.06
2023-02-26T12:12:33.174Z,5.74
2023-02-26T12:18:56.292Z,5.15
2023-02-26T12:25:16.149Z,4.67
2023-02-26T12:31:39.403Z,4.53
2023-02-26T12:37:59.284Z,4.47
2023-02-26T12:44:22.210Z,4.26
2023-02-26T12:50:42.315Z,4.48
2023-02-26T12:57:05.214Z,4.62
2023-02-26T13:03:25.237Z,4.53
2023-02-26T13:09:48.217Z,4.58
2023-02-26T13:16:08.315Z,4.61
2023-02-26T13:22:31.227Z,4.85
2023-02-26T13:28:51.502Z,5.4
2023-02-26T13:35:14.227Z,5.47
2023-02-26T13:41:34.225Z,5.24
2023-02-26T13:47:57.292Z,4.96
2023-02-26T13:54:17.250Z,4.88
2023-02-26T14:00:40.238Z,5.34
2023-02-26T14:07:00.203Z,5.92
2023-02-26T14:13:23.204Z,5.93
2023-02-26T14:19:43.197Z,5.64
2023-02-26T14:36:59.708Z,5.66
2023-02-26T14:43:19.147Z,5.91
2023-02-26T14:49:42.178Z,5.96
2023-02-26T14:56:02.203Z,6.06
2023-02-26T15:02:25.356Z,5.9
2023-02-26T15:08:45.202Z,5.95
2023-02-26T15:15:08.203Z,6.24
2023-02-26T15:21:28.367Z,6.46
2023-02-26T15:27:51.200Z,6.13
2023-02-26T15:34:11.219Z,5.83
2023-02-26T15:40:34.241Z,5.54
2023-02-26T15:46:54.619Z,5.27
2023-02-26T15:53:17.249Z,5.04
2023-02-26T15:59:38.766Z,4.91
2023-02-26T16:06:00.234Z,4.68
2023-02-26T16:12:20.215Z,4.51
2023-02-26T16:18:43.220Z,4.31
2023-02-26T16:25:03.227Z,4.17
2023-02-26T16:31:26.266Z,4.08
2023-02-26T16:37:46.175Z,4.02
2023-02-26T16:44:09.149Z,3.93
2023-02-26T16:50:29.243Z,3.81
2023-02-26T16:56:52.258Z,3.68
2023-02-26T17:03:12.304Z,3.49
2023-02-26T17:09:35.202Z,3.32
2023-02-26T17:15:55.215Z,3.18
2023-02-26T17:22:18.178Z,3.07
2023-02-26T17:28:38.271Z,2.97
2023-02-26T17:35:01.175Z,2.88
2023-02-26T17:41:21.166Z,2.8
2023-02-26T17:47:44.382Z,2.68
2023-02-26T17:54:04.389Z,2.56
2023-02-26T18:00:27.358Z,2.4
2023-02-26T18:06:47.245Z,2.32
2023-02-26T18:13:10.393Z,2.25
2023-02-26T18:19:30.198Z,2.12
2023-02-26T18:25:53.236Z,2.02
2023-02-26T18:32:13.446Z,1.84
2023-02-26T18:38:36.188Z,1.63
2023-02-26T18:44:56.323Z,1.41
2023-02-26T18:51:19.574Z,1.18
2023-02-26T18:57:39.175Z,0.96
2023-02-26T19:04:02.281Z,0.83
2023-02-26T19:10:22.172Z,0.73
2023-02-26T19:16:45.221Z,0.59
2023-02-26T19:39:13.183Z,0.2
2023-02-26T19:45:36.305Z,0.19
2023-02-26T19:51:56.273Z,0.06
2023-02-26T19:58:19.190Z,-0.05
2023-02-26T20:04:39.395Z,-0.11
2023-02-26T20:11:02.180Z,-0.17
2023-02-26T20:17:22.211Z,-0.19
2023-02-26T20:23:45.197Z,-0.22
2023-02-26T20:30:05.156Z,-0.31
2023-02-26T20:36:28.186Z,-0.39
2023-02-26T20:42:48.160Z,-0.42
2023-02-26T20:49:11.174Z,-0.47
2023-02-26T20:55:31.270Z,-0.52
2023-02-26T21:01:54.145Z,-0.6
2023-02-26T21:08:14.194Z,-0.7
2023-02-26T21:14:37.200Z,-0.77
2023-02-26T21:20:57.199Z,-0.79
2023-02-26T21:27:20.212Z,-0.86
2023-02-26T21:33:40.238Z,-0.93
2023-02-26T21:40:03.173Z,-0.93
2023-02-26T21:46:23.210Z,-0.96
2023-02-26T21:52:46.280Z,-1
2023-02-26T21:59:06.223Z,-0.99
2023-02-26T22:05:29.249Z,-0.99
2023-02-26T22:11:49.302Z,-1.09
2023-02-26T22:18:12.265Z,-1.27
2023-02-26T22:24:32.192Z,-1.35
2023-02-26T22:30:55.235Z,-1.34
2023-02-26T22:37:15.185Z,-1.33
2023-02-26T22:43:38.256Z,-1.34
2023-02-26T22:49:58.350Z,-1.54
2023-02-26T22:56:21.179Z,-1.83
2023-02-26T23:20:35.205Z,-1.9
2023-02-26T23:26:55.171Z,-1.89
2023-02-26T23:33:18.230Z,-2.08
2023-02-26T23:39:38.206Z,-2.11
2023-02-26T23:46:01.299Z,-2.08
2023-02-26T23:52:21.231Z,-2.01
2023-02-26T23:58:44.267Z,-2.04
